Terminal Aerodrome Forecast
Issued by NWS

Home | Current Version | Previous Version | Text Only | Print | Product List | Glossary On
Versions: 1 2 3 4 5 6 7 8 9 10 11 12 13 14 15 16 17 18
000
FTUS44 KLUB 290500
TAFCDS
TAF
KCDS 290520Z 2906/3006 12007KT P6SM OVC100
      TEMPO 2913/2917 VRB10G20KT 6SM -TSRA BKN040CB OVC150
     FM291800 14012KT P6SM OVC100 PROB30 3000/3006 VRB10G25KT 6SM
      -TSRA BKN040CB OVC100=

USA.gov is the U.S. government's official web portal to all federal, state and local government web resources and services.